Aeroporto :
LOGIN :

Iscrizione | Disclaimer

   EN    FR    IT 

 










Sommario :    VFR   VFR Marginale   IFR   IFR Intensivo   IFR Molto Intensivo
Visibilità : 
Base nubi : 
>= 8 km
>= 3000ft
5 / 8 km
1000 / 3000 ft
1500m / 5 km
500 / 1000 ft
800 / 1500m
200 / 500 ft
< 800m
< 200 ft
Simboli :   Temporali  Nebbia  Neve Forte  Precipitazioni Forti  Vento > 20 kt
SIGMETs :   Varie  Temporali  Ghiacco  Turbolenza  Onda orograficha  Ceneri Vulcaniche







- Altitudine del aeroporto : 433 ft
- Carte del aeroporto


LFOC - Chateaudun

ULTIMO METAR :
  • 191630Z AUTO 04006KT CAVOK 24/10 Q1024

METARs OBSOLETI :
  • 191600Z AUTO VRB02KT CAVOK 24/10 Q1024
  • 191530Z AUTO 36005KT CAVOK 23/09 Q1024
  • 191500Z AUTO 02006KT 340V060 CAVOK 23/09 Q1024
  • 191430Z AUTO 01005KT 320V060 CAVOK 24/11 Q1024
  • 191400Z AUTO 03004KT 340V100 CAVOK 23/11 Q1024 NOSIG

TAF TAF LFOC
Valido dal 19 a 09 ore il 20 a 09 ore UTC


190800Z 1909/2009 05004KT CAVOK
BECMG 2000/2002 SCT060TCU
PROB30
TEMPO 2003/2007 33015G25KT 4900 -SHRA SCT060CB
Nessun NOTAM noto per questo aeroporto.



MetMap, La meteo Aeronautica in un colpo d'occhio ! - Copyright ORBIFLY Dicembre 2007 - Disclaimer

ORBIFLY MET'MAP TEAM :

Programmazione e sviluppo : Alexandra Zaïnal
Concezione e sviluppo : Baudouin d'Aumeries
Co-Programmazione e sviluppo : Marc-Olivier Méhu
Supporto tecnico e logistico : Manuel Goepfert
Aiuto per la traduzione : Arnaldo La Scala

Contatto : metmap@orbifly.com




FONTI E CREDITI :

   NOAA